Time;durP1;ratioP1;P1;durP2;ratioP2;P2;SDS_P1;SDS_P2;PMS_P1;PMS_P2;Temp;Humidity;BMP_temperature;BMP_pressure;BME280_temperature;BME280_humidity;BME280_pressure;Samples;Min_cycle;Max_cycle;Signal;HPM_P1;HPM_P2
2023/02/28 00:02:19;;;;;;;4.00;2.70;;;;;;;-146.27;100.00;48427.47;5088080;28;20117;-76
2023/02/28 00:04:45;;;;;;;4.72;2.63;;;;;;;-146.27;100.00;48449.38;5088074;28;20471;-79
2023/02/28 00:07:10;;;;;;;8.50;2.92;;;;;;;-146.27;100.00;48407.56;5091765;28;20456;-77
2023/02/28 00:09:35;;;;;;;6.22;2.95;;;;;;;-146.27;100.00;48427.47;5083922;28;20036;-78
2023/02/28 00:12:10;;;;;;;6.47;2.97;;;;;;;-146.27;100.00;48461.34;5087499;28;20098;-77
2023/02/28 00:14:36;;;;;;;8.13;3.03;;;;;;;-146.27;100.00;48415.53;5090629;28;20028;-77
2023/02/28 00:17:01;;;;;;;5.45;3.00;;;;;;;-146.27;100.00;48429.47;5087924;28;20115;-79
2023/02/28 00:19:27;;;;;;;7.68;3.03;;;;;;;-146.27;100.00;48417.50;5089688;28;20435;-78
2023/02/28 00:21:52;;;;;;;8.57;2.90;;;;;;;-146.27;100.00;48425.47;5083771;28;20035;-78
2023/02/28 00:24:17;;;;;;;4.32;2.78;;;;;;;-146.27;100.00;48425.47;5089228;28;20024;-77
2023/02/28 00:26:43;;;;;;;5.03;3.38;;;;;;;-146.27;100.00;48471.28;5090855;28;20024;-77
2023/02/28 00:29:08;;;;;;;11.65;3.30;;;;;;;-146.27;100.00;48419.50;5091673;28;20021;-78
2023/02/28 00:31:33;;;;;;;8.15;3.35;;;;;;;-146.27;100.00;48403.56;5092487;28;20047;-77
2023/02/28 00:33:59;;;;;;;5.30;3.35;;;;;;;-146.27;100.00;48419.50;5090002;28;20035;-78
2023/02/28 00:36:24;;;;;;;3.78;2.92;;;;;;;-146.27;100.00;48427.47;5088700;28;20025;-77
2023/02/28 00:38:50;;;;;;;7.47;3.20;;;;;;;-146.27;100.00;48407.56;5090521;28;20032;-77
2023/02/28 00:41:15;;;;;;;10.98;3.80;;;;;;;-146.27;100.00;48471.28;5089643;28;20038;-78
2023/02/28 00:43:40;;;;;;;5.80;2.83;;;;;;;-146.27;100.00;48421.50;5090088;28;20023;-78
2023/02/28 00:46:06;;;;;;;4.82;2.97;;;;;;;-146.27;100.00;48419.50;5093326;28;20034;-78
2023/02/28 00:48:32;;;;;;;6.22;3.13;;;;;;;-146.27;100.00;48477.25;5093932;28;20056;-78
2023/02/28 00:50:57;;;;;;;5.10;3.13;;;;;;;-146.27;100.00;48403.56;5091068;28;20032;-79
2023/02/28 00:53:23;;;;;;;10.10;2.95;;;;;;;-146.27;100.00;48439.41;5094993;28;20032;-78
2023/02/28 00:55:49;;;;;;;6.70;3.50;;;;;;;-146.27;100.00;48427.47;5091238;28;20020;-76
2023/02/28 00:58:15;;;;;;;7.28;3.83;;;;;;;-146.27;100.00;48417.50;5082955;28;20020;-78
2023/02/28 01:00:40;;;;;;;10.45;3.55;;;;;;;-146.27;100.00;48431.47;5090905;28;20026;-78
2023/02/28 01:03:05;;;;;;;8.38;3.53;;;;;;;-146.27;100.00;48423.50;5096282;28;20107;-79
2023/02/28 01:05:31;;;;;;;8.00;3.65;;;;;;;-146.27;100.00;48449.38;5092468;28;20498;-79
2023/02/28 01:07:56;;;;;;;7.18;3.25;;;;;;;-146.27;100.00;48413.53;5099435;28;20536;-78
2023/02/28 01:10:21;;;;;;;9.45;3.80;;;;;;;-146.27;100.00;48415.53;5089026;28;20025;-80
2023/02/28 01:12:48;;;;;;;6.38;2.88;;;;;;;-146.27;100.00;48453.38;5094180;28;20043;-79
2023/02/28 01:15:13;;;;;;;5.78;3.28;;;;;;;-146.27;100.00;48459.34;5093094;28;20069;-78
2023/02/28 01:17:39;;;;;;;6.50;3.45;;;;;;;-146.27;100.00;48411.53;5094318;28;20120;-77
2023/02/28 01:20:05;;;;;;;7.55;3.30;;;;;;;-146.27;100.00;48413.53;5087027;28;20028;-78
2023/02/28 01:22:30;;;;;;;8.05;3.63;;;;;;;-146.27;100.00;48455.34;5092598;28;20020;-77
2023/02/28 01:24:55;;;;;;;9.57;3.47;;;;;;;-146.27;100.00;48429.47;5093086;28;20086;-77
2023/02/28 01:27:21;;;;;;;10.85;4.28;;;;;;;-146.27;100.00;48443.41;5090532;28;20073;-77
2023/02/28 01:29:46;;;;;;;9.10;3.92;;;;;;;-146.27;100.00;48433.44;5092486;28;20034;-77
2023/02/28 01:32:11;;;;;;;5.57;3.40;;;;;;;-146.27;100.00;48443.41;5092927;28;20028;-78
2023/02/28 01:34:37;;;;;;;8.57;3.85;;;;;;;-146.27;100.00;48399.59;5090087;28;20054;-79
2023/02/28 01:37:03;;;;;;;6.03;3.72;;;;;;;-146.27;100.00;48425.47;5089797;28;20028;-77
2023/02/28 01:39:29;;;;;;;8.38;4.00;;;;;;;-146.27;100.00;48445.41;5093027;28;20039;-79
2023/02/28 01:41:54;;;;;;;5.13;3.72;;;;;;;-146.27;100.00;48435.44;5086044;28;20078;-77
2023/02/28 01:44:58;;;;;;;11.23;4.00;;;;;;;-146.27;100.00;48447.38;5087188;28;20364;-78
2023/02/28 01:47:29;;;;;;;8.40;4.18;;;;;;;-146.27;100.00;48437.44;5094706;28;20032;-78
2023/02/28 01:49:54;;;;;;;12.10;4.00;;;;;;;-146.27;100.00;48405.56;5092480;28;20103;-78
2023/02/28 01:52:21;;;;;;;10.43;4.13;;;;;;;-146.27;100.00;48433.44;5084405;28;20128;-78
2023/02/28 01:54:52;;;;;;;6.93;3.70;;;;;;;-146.27;100.00;48455.34;5094010;28;20523;-78
2023/02/28 01:57:22;;;;;;;6.72;3.97;;;;;;;-146.27;100.00;48423.50;5092889;28;20054;-77
2023/02/28 01:59:55;;;;;;;11.40;4.15;;;;;;;-146.27;100.00;48419.50;5091964;28;20391;-77
2023/02/28 02:02:23;;;;;;;10.05;4.80;;;;;;;-146.27;100.00;48419.50;5093387;28;20102;-77
2023/02/28 02:04:58;;;;;;;9.77;3.97;;;;;;;-146.27;100.00;48433.44;5093026;28;20120;-79
2023/02/28 02:07:25;;;;;;;8.05;3.90;;;;;;;-146.27;100.00;48427.47;5093851;28;20042;-78
2023/02/28 02:09:59;;;;;;;7.85;4.07;;;;;;;-146.27;100.00;48419.50;5093161;28;20036;-77
2023/02/28 02:12:52;;;;;;;10.20;4.53;;;;;;;-146.27;100.00;48427.47;5091634;28;20030;-78
2023/02/28 02:15:38;;;;;;;8.77;3.72;;;;;;;-146.27;100.00;48415.53;5089709;28;20200;-75
2023/02/28 02:18:22;;;;;;;5.13;3.90;;;;;;;-146.27;100.00;48437.44;5087990;28;20074;-77
2023/02/28 02:21:13;;;;;;;7.85;3.95;;;;;;;-146.27;100.00;48431.47;5092552;28;20388;-77
2023/02/28 02:24:17;;;;;;;14.60;4.13;;;;;;;-146.27;100.00;48447.38;5074361;28;20034;-78
2023/02/28 02:26:51;;;;;;;8.40;4.13;;;;;;;-146.27;100.00;48405.56;5085933;28;20066;-76
2023/02/28 02:29:42;;;;;;;11.90;4.60;;;;;;;-146.27;100.00;48439.41;5091867;28;20027;-77
2023/02/28 02:32:40;;;;;;;7.55;4.80;;;;;;;-146.27;100.00;48425.47;5089650;28;20036;-78
2023/02/28 02:35:27;;;;;;;10.15;4.35;;;;;;;-146.27;100.00;48405.56;5077546;28;20035;-78
2023/02/28 02:38:04;;;;;;;18.90;4.75;;;;;;;-146.27;100.00;48437.44;5092109;28;20063;-79
2023/02/28 02:40:41;;;;;;;8.38;4.50;;;;;;;-146.27;100.00;48411.53;5087709;28;20069;-77
2023/02/28 02:43:45;;;;;;;10.80;4.63;;;;;;;-146.27;100.00;48411.53;5089084;28;20107;-77
2023/02/28 02:46:19;;;;;;;12.63;4.78;;;;;;;-146.27;100.00;48443.41;5067659;28;20041;-76
2023/02/28 02:48:46;;;;;;;7.25;4.47;;;;;;;-146.27;100.00;48371.69;5078594;28;20040;-78
2023/02/28 02:51:16;;;;;;;16.20;5.32;;;;;;;-146.27;100.00;48429.47;5091115;28;20554;-78
2023/02/28 02:53:49;;;;;;;14.15;4.50;;;;;;;-146.27;100.00;48415.53;5090731;28;20089;-78
2023/02/28 02:56:19;;;;;;;7.90;5.00;;;;;;;-146.27;100.00;48433.44;5071161;28;20491;-78
2023/02/28 02:58:48;;;;;;;11.40;4.50;;;;;;;-146.27;100.00;48451.38;5092636;28;20023;-79
2023/02/28 03:01:27;;;;;;;13.02;4.43;;;;;;;-146.27;100.00;48429.47;5090643;28;20119;-78
2023/02/28 03:04:16;;;;;;;7.78;4.70;;;;;;;-146.27;100.00;48443.41;5079098;28;20020;-78
2023/02/28 03:06:42;;;;;;;8.10;4.60;;;;;;;-146.27;100.00;48437.44;5091534;28;20101;-78
2023/02/28 03:09:07;;;;;;;8.63;5.40;;;;;;;-146.27;100.00;48429.47;5086963;28;20040;-77
2023/02/28 03:11:36;;;;;;;7.55;4.65;;;;;;;-146.27;100.00;48407.56;5085458;28;20430;-77
2023/02/28 03:14:46;;;;;;;12.35;5.97;;;;;;;-146.27;100.00;48435.44;5083423;28;20020;-78
2023/02/28 03:17:39;;;;;;;11.05;4.78;;;;;;;-146.27;100.00;48443.41;5079058;28;20040;-78
2023/02/28 03:20:13;;;;;;;10.45;4.75;;;;;;;-146.27;100.00;48393.63;5085933;28;20102;-77
2023/02/28 03:23:09;;;;;;;7.00;5.35;;;;;;;-146.27;100.00;48425.47;5090092;28;20016;-76
2023/02/28 03:25:55;;;;;;;8.45;5.25;;;;;;;-146.27;100.00;48451.38;5085840;28;20472;-78
2023/02/28 03:28:42;;;;;;;13.30;5.45;;;;;;;-146.27;100.00;48437.44;5081206;28;20024;-74
2023/02/28 03:31:20;;;;;;;9.77;5.63;;;;;;;-146.27;100.00;48423.50;5086011;28;20032;-78
2023/02/28 03:33:55;;;;;;;9.10;5.53;;;;;;;-146.27;100.00;48447.38;5090745;28;20471;-75
2023/02/28 03:36:28;;;;;;;14.07;6.47;;;;;;;-146.27;100.00;48459.34;5092157;28;20449;-77
2023/02/28 03:39:07;;;;;;;18.40;6.13;;;;;;;-146.27;100.00;48423.50;5090545;28;20032;-76
2023/02/28 03:41:38;;;;;;;10.82;5.50;;;;;;;-146.27;100.00;48435.44;5090559;28;20038;-77
2023/02/28 03:44:27;;;;;;;13.02;6.57;;;;;;;-146.27;100.00;48431.47;5091250;28;20027;-78
2023/02/28 03:47:00;;;;;;;14.20;6.47;;;;;;;-146.27;100.00;48445.41;5092447;28;20019;-77
2023/02/28 03:49:32;;;;;;;14.45;6.25;;;;;;;-146.27;100.00;48449.38;5087204;28;20093;-77
2023/02/28 03:52:02;;;;;;;12.32;6.40;;;;;;;-146.27;100.00;48459.34;5088410;28;20073;-74
2023/02/28 03:54:34;;;;;;;15.32;6.03;;;;;;;-146.27;100.00;48417.50;5085726;28;20028;-77
2023/02/28 03:57:24;;;;;;;10.93;6.13;;;;;;;-146.27;100.00;48435.44;5078524;28;20086;-75
2023/02/28 03:59:57;;;;;;;12.32;6.55;;;;;;;-146.27;100.00;48467.31;5085302;28;20043;-77
2023/02/28 04:02:22;;;;;;;17.13;7.03;;;;;;;-146.27;100.00;48461.34;5092009;28;20424;-78
2023/02/28 04:04:48;;;;;;;12.10;6.45;;;;;;;-146.27;100.00;48437.44;5085195;28;20040;-76
2023/02/28 04:07:14;;;;;;;13.27;6.43;;;;;;;-146.27;100.00;48407.56;5087823;28;20504;-78
2023/02/28 04:09:39;;;;;;;10.63;6.68;;;;;;;-146.27;100.00;48415.53;5092276;28;20031;-78
2023/02/28 04:12:05;;;;;;;17.50;7.10;;;;;;;-146.27;100.00;48437.44;5087876;28;20071;-78
2023/02/28 04:14:30;;;;;;;12.45;6.60;;;;;;;-146.27;100.00;48443.41;5084113;28;20039;-78
2023/02/28 04:16:56;;;;;;;11.95;6.57;;;;;;;-146.27;100.00;48425.47;5092889;28;20120;-77
2023/02/28 04:19:21;;;;;;;17.27;6.68;;;;;;;-146.27;100.00;48419.50;5091043;28;20040;-77
2023/02/28 04:21:49;;;;;;;15.13;6.55;;;;;;;-146.27;100.00;48369.72;5094548;28;20039;-77
2023/02/28 04:24:18;;;;;;;15.15;6.70;;;;;;;-146.27;100.00;48447.38;5081504;28;20116;-77
2023/02/28 04:26:46;;;;;;;15.20;6.72;;;;;;;-146.27;100.00;48369.72;5095138;28;20031;-78
2023/02/28 04:29:14;;;;;;;19.65;8.45;;;;;;;-146.27;100.00;48443.41;5096093;28;20027;-77
2023/02/28 04:31:39;;;;;;;15.68;8.15;;;;;;;-146.27;100.00;48433.44;5090786;28;20078;-76
2023/02/28 04:34:05;;;;;;;12.93;7.68;;;;;;;-146.27;100.00;48459.34;5094182;28;20059;-77
2023/02/28 04:36:31;;;;;;;17.52;8.50;;;;;;;-146.27;100.00;48435.44;5094968;28;20024;-78
2023/02/28 04:38:57;;;;;;;11.40;7.85;;;;;;;-146.27;100.00;48435.44;5093967;28;20051;-77
2023/02/28 04:41:23;;;;;;;12.77;7.22;;;;;;;-146.27;100.00;48441.41;5082850;28;20042;-77
2023/02/28 04:43:49;;;;;;;15.57;6.68;;;;;;;-146.27;100.00;48437.44;5086768;28;20023;-78
2023/02/28 04:46:15;;;;;;;14.55;7.55;;;;;;;-146.27;100.00;48417.50;5092654;28;20051;-78
2023/02/28 04:48:40;;;;;;;13.40;7.80;;;;;;;-146.27;100.00;48435.44;5089586;28;20042;-77
2023/02/28 04:51:09;;;;;;;18.77;7.28;;;;;;;-146.27;100.00;48405.56;5093962;28;20028;-76
2023/02/28 04:53:37;;;;;;;12.48;7.28;;;;;;;-146.27;100.00;48413.53;5088485;28;20515;-77
2023/02/28 04:56:03;;;;;;;19.63;7.40;;;;;;;-146.27;100.00;48407.56;5086617;28;20379;-79
2023/02/28 04:58:29;;;;;;;14.60;7.53;;;;;;;-146.27;100.00;48417.50;5079297;28;20024;-77
2023/02/28 05:01:02;;;;;;;11.75;7.30;;;;;;;-146.27;100.00;48415.53;5089082;28;20111;-78
2023/02/28 05:03:27;;;;;;;12.13;7.35;;;;;;;-146.27;100.00;48415.53;5075940;28;20024;-79
2023/02/28 05:05:53;;;;;;;15.95;7.25;;;;;;;-146.27;100.00;48463.31;5090576;28;20024;-79
2023/02/28 05:08:18;;;;;;;14.60;7.18;;;;;;;-146.27;100.00;48435.44;5095926;28;20042;-78
2023/02/28 05:10:43;;;;;;;13.57;7.57;;;;;;;-146.27;100.00;48455.34;5090052;28;20111;-78
2023/02/28 05:13:12;;;;;;;10.70;6.97;;;;;;;-146.27;100.00;48419.50;5095645;28;20435;-78
2023/02/28 05:15:37;;;;;;;10.57;6.95;;;;;;;-146.27;100.00;48407.56;5091166;28;20119;-77
2023/02/28 05:18:03;;;;;;;18.00;7.47;;;;;;;-146.27;100.00;48467.31;5093126;28;20612;-77
2023/02/28 05:20:28;;;;;;;15.00;7.03;;;;;;;-146.27;100.00;48403.56;5093163;28;20587;-78
2023/02/28 05:22:53;;;;;;;12.48;7.05;;;;;;;-146.27;100.00;48445.41;5094527;28;20072;-78
2023/02/28 05:25:23;;;;;;;10.38;6.35;;;;;;;-146.27;100.00;48399.59;5084100;28;20500;-76
2023/02/28 05:27:49;;;;;;;10.98;6.88;;;;;;;-146.27;100.00;48409.53;5075504;28;20028;-76
2023/02/28 05:30:15;;;;;;;12.13;6.82;;;;;;;-146.27;100.00;48429.47;5087777;28;20032;-78
2023/02/28 05:32:44;;;;;;;14.93;6.72;;;;;;;-146.27;100.00;48439.41;5086225;28;20059;-78
2023/02/28 05:35:11;;;;;;;12.93;6.90;;;;;;;-146.27;100.00;48443.41;5090418;28;20384;-78
2023/02/28 05:37:37;;;;;;;10.98;6.35;;;;;;;-146.27;100.00;48433.44;5073578;28;20028;-77
2023/02/28 05:40:05;;;;;;;13.07;7.05;;;;;;;-146.27;100.00;48413.53;5084544;28;20028;-77
2023/02/28 05:42:31;;;;;;;12.60;6.22;;;;;;;-146.27;100.00;48423.50;5087415;28;20115;-78
2023/02/28 05:44:56;;;;;;;9.02;5.88;;;;;;;-146.27;100.00;48427.47;5089577;28;20144;-77
2023/02/28 05:47:22;;;;;;;11.30;5.82;;;;;;;-146.27;100.00;48403.56;5094521;28;20024;-78
2023/02/28 05:49:47;;;;;;;14.18;6.97;;;;;;;-146.27;100.00;48443.41;5084679;28;20423;-78
2023/02/28 05:52:12;;;;;;;11.32;5.65;;;;;;;-146.27;100.00;48415.53;5088000;28;20460;-78
2023/02/28 05:54:38;;;;;;;9.77;6.22;;;;;;;-146.27;100.00;48433.44;5083458;28;20108;-78
2023/02/28 05:57:03;;;;;;;11.43;6.40;;;;;;;-146.27;100.00;48461.34;5086515;28;20021;-78
2023/02/28 05:59:28;;;;;;;12.05;5.90;;;;;;;-146.27;100.00;48439.41;5083143;28;20028;-76
2023/02/28 06:01:54;;;;;;;9.73;5.88;;;;;;;-146.27;100.00;48415.53;5088208;28;20042;-76
2023/02/28 06:04:21;;;;;;;7.82;5.00;;;;;;;-146.27;100.00;48439.41;5094177;28;20450;-78
2023/02/28 06:06:47;;;;;;;11.15;6.53;;;;;;;-146.27;100.00;48433.44;5094901;28;20124;-78
2023/02/28 06:09:13;;;;;;;14.85;5.78;;;;;;;-146.27;100.00;48427.47;5094637;28;20110;-77
2023/02/28 06:11:39;;;;;;;9.95;5.90;;;;;;;-146.27;100.00;48435.44;5090886;28;20103;-78
2023/02/28 06:14:05;;;;;;;16.25;6.90;;;;;;;-146.27;100.00;48445.41;5092516;28;20178;-76
2023/02/28 06:16:33;;;;;;;11.98;6.45;;;;;;;-146.27;100.00;48435.44;5092646;28;20469;-77
2023/02/28 06:19:01;;;;;;;18.20;6.28;;;;;;;-146.27;100.00;48423.50;5089191;28;20039;-78
2023/02/28 06:21:27;;;;;;;10.70;6.35;;;;;;;-146.27;100.00;48427.47;5093916;28;20044;-78
2023/02/28 06:23:53;;;;;;;11.07;6.10;;;;;;;-146.27;100.00;48433.44;5090431;28;20064;-77
2023/02/28 06:26:19;;;;;;;12.77;7.70;;;;;;;-146.27;100.00;48431.47;5088934;28;20448;-79
2023/02/28 06:28:44;;;;;;;12.95;6.72;;;;;;;-146.27;100.00;48439.41;5070775;28;20062;-76
2023/02/28 06:31:12;;;;;;;11.60;6.38;;;;;;;-146.27;100.00;48407.56;5093044;28;20060;-77
2023/02/28 06:33:39;;;;;;;11.73;6.53;;;;;;;-146.27;100.00;48411.53;5091190;28;20374;-76
2023/02/28 06:36:05;;;;;;;10.68;6.75;;;;;;;-146.27;100.00;48447.38;5094477;28;20455;-78
2023/02/28 06:38:32;;;;;;;15.65;7.07;;;;;;;-146.27;100.00;48439.41;5091767;28;20035;-78
2023/02/28 06:40:58;;;;;;;12.10;6.80;;;;;;;-146.27;100.00;48455.34;5081902;28;20020;-79
2023/02/28 06:43:26;;;;;;;11.35;6.72;;;;;;;-146.27;100.00;48415.53;5078157;28;20063;-77
2023/02/28 06:45:55;;;;;;;11.90;6.50;;;;;;;-146.27;100.00;48455.34;5088766;28;20486;-77
2023/02/28 06:48:21;;;;;;;13.10;6.10;;;;;;;-146.27;100.00;48443.41;5089602;28;20016;-77
2023/02/28 06:50:46;;;;;;;14.15;6.38;;;;;;;-146.27;100.00;48371.69;5091267;28;20073;-77
2023/02/28 06:53:12;;;;;;;7.60;5.55;;;;;;;-146.27;100.00;48439.41;5091932;28;20024;-76
2023/02/28 06:55:38;;;;;;;12.60;5.00;;;;;;;-146.27;100.00;48415.53;5092090;28;20039;-76
2023/02/28 06:58:14;;;;;;;7.93;4.85;;;;;;;-146.27;100.00;48411.53;5091748;28;20032;-77
2023/02/28 07:00:40;;;;;;;7.07;4.57;;;;;;;-146.27;100.00;48463.31;5091237;28;20092;-78
2023/02/28 07:03:05;;;;;;;7.88;4.68;;;;;;;-146.27;100.00;48447.38;5090277;28;20062;-77
2023/02/28 07:05:31;;;;;;;10.55;4.55;;;;;;;-146.27;100.00;48475.28;5089010;28;20048;-76
2023/02/28 07:07:56;;;;;;;8.10;4.20;;;;;;;-146.27;100.00;48427.47;5086136;28;20371;-76
2023/02/28 07:10:22;;;;;;;7.22;4.35;;;;;;;-146.27;100.00;48409.53;5086875;28;20409;-78
2023/02/28 07:12:47;;;;;;;7.40;4.13;;;;;;;-146.27;100.00;48427.47;5092385;28;20091;-76
2023/02/28 07:15:13;;;;;;;10.40;4.53;;;;;;;-146.27;100.00;48439.41;5087878;28;20449;-76
2023/02/28 07:17:38;;;;;;;5.65;4.15;;;;;;;-146.27;100.00;48441.41;5090454;28;20020;-77
2023/02/28 07:20:05;;;;;;;6.07;4.07;;;;;;;-146.27;100.00;48411.53;5081652;28;20024;-76
2023/02/28 07:22:31;;;;;;;7.05;4.25;;;;;;;-146.27;100.00;48395.59;5079675;28;20475;-77
2023/02/28 07:24:56;;;;;;;5.80;4.05;;;;;;;-146.27;100.00;48399.59;5088478;28;20024;-78
2023/02/28 07:27:25;;;;;;;9.15;4.60;;;;;;;-146.27;100.00;48455.34;5078636;28;20451;-76
2023/02/28 07:29:51;;;;;;;9.52;4.45;;;;;;;-146.27;100.00;48411.53;5088723;28;20023;-75
2023/02/28 07:32:18;;;;;;;11.10;4.28;;;;;;;-146.27;100.00;48455.34;5091513;28;20035;-77
2023/02/28 07:34:44;;;;;;;7.97;4.10;;;;;;;-146.27;100.00;48417.50;5091355;28;20464;-75
2023/02/28 07:37:09;;;;;;;9.13;4.65;;;;;;;-146.27;100.00;48443.41;5086476;28;20039;-76
2023/02/28 07:39:34;;;;;;;9.77;4.65;;;;;;;-146.27;100.00;48439.41;5074213;28;20032;-76
2023/02/28 07:42:03;;;;;;;7.22;4.88;;;;;;;-146.27;100.00;48445.41;5092575;28;20044;-76
2023/02/28 07:44:28;;;;;;;6.97;3.97;;;;;;;-146.27;100.00;48459.34;5092172;28;20028;-76
2023/02/28 07:46:54;;;;;;;14.52;5.38;;;;;;;-146.27;100.00;48409.53;5092665;28;20026;-77
2023/02/28 07:49:19;;;;;;;9.02;4.85;;;;;;;-146.27;100.00;48401.56;5084965;28;20107;-77
2023/02/28 07:51:44;;;;;;;6.90;4.78;;;;;;;-146.27;100.00;48443.41;5089012;28;20185;-75
2023/02/28 07:54:10;;;;;;;9.60;4.93;;;;;;;-146.27;100.00;48447.38;5090585;28;20032;-76
2023/02/28 07:56:35;;;;;;;14.02;5.32;;;;;;;-146.27;100.00;48455.34;5092196;28;20035;-77
2023/02/28 07:59:01;;;;;;;10.52;5.65;;;;;;;-146.27;100.00;48401.56;5091774;28;20464;-76
2023/02/28 08:01:27;;;;;;;7.88;4.90;;;;;;;-146.27;100.00;48449.38;5091487;28;20096;-79
2023/02/28 08:03:54;;;;;;;9.98;5.72;;;;;;;-146.27;100.00;48451.38;5090586;28;20098;-76
2023/02/28 08:06:22;;;;;;;7.75;5.20;;;;;;;-146.27;100.00;48471.28;5091470;28;20545;-75
2023/02/28 08:08:48;;;;;;;8.88;5.43;;;;;;;-146.27;100.00;48447.38;5083181;28;20109;-76
2023/02/28 08:11:14;;;;;;;8.88;5.70;;;;;;;-146.27;100.00;48395.59;5084565;28;20173;-77
2023/02/28 08:13:40;;;;;;;9.23;5.55;;;;;;;-146.27;100.00;48415.53;5084454;28;20024;-75
2023/02/28 08:16:05;;;;;;;9.13;5.82;;;;;;;-146.27;100.00;48455.34;5088349;28;20028;-76
2023/02/28 08:18:32;;;;;;;10.15;6.30;;;;;;;-146.27;100.00;48405.56;5083549;28;20031;-75
2023/02/28 08:20:58;;;;;;;7.40;5.50;;;;;;;-146.27;100.00;48447.38;5091734;28;20028;-76
2023/02/28 08:23:24;;;;;;;10.88;6.28;;;;;;;-146.27;100.00;48427.47;5076425;28;20056;-74
2023/02/28 08:25:56;;;;;;;12.32;6.78;;;;;;;-146.27;100.00;48423.50;5088803;28;20081;-76
2023/02/28 08:28:23;;;;;;;10.63;6.60;;;;;;;-146.27;100.00;48471.28;5091572;28;20032;-76
2023/02/28 08:30:48;;;;;;;10.32;6.78;;;;;;;-146.27;100.00;48401.56;5082554;28;20032;-77
2023/02/28 08:33:14;;;;;;;12.75;7.50;;;;;;;-146.27;100.00;48407.56;5083596;28;20471;-76
2023/02/28 08:35:39;;;;;;;14.85;6.68;;;;;;;-146.27;100.00;48439.41;5091263;28;20047;-76
2023/02/28 08:38:04;;;;;;;13.30;7.45;;;;;;;-146.27;100.00;48455.34;5083713;28;20020;-77
2023/02/28 08:40:30;;;;;;;11.93;7.30;;;;;;;-146.27;100.00;48431.47;5079965;28;20047;-77
2023/02/28 08:42:55;;;;;;;13.60;7.82;;;;;;;-146.27;100.00;48447.38;5087555;28;20035;-78
2023/02/28 08:45:22;;;;;;;9.77;7.38;;;;;;;-146.27;100.00;48447.38;5091678;28;20038;-78
2023/02/28 08:47:47;;;;;;;13.43;7.72;;;;;;;-146.27;100.00;48435.44;5085491;28;20028;-77
2023/02/28 08:50:14;;;;;;;10.93;7.43;;;;;;;-146.27;100.00;48415.53;5084640;28;20023;-78
2023/02/28 08:52:43;;;;;;;13.90;7.75;;;;;;;-146.27;100.00;48421.50;5086168;28;20136;-77
2023/02/28 08:55:09;;;;;;;12.10;7.30;;;;;;;-146.27;100.00;48429.47;5084271;28;20531;-77
2023/02/28 08:57:34;;;;;;;9.52;6.70;;;;;;;-146.27;100.00;48417.50;5087576;28;20024;-76
2023/02/28 09:00:01;;;;;;;13.75;7.30;;;;;;;-146.27;100.00;48399.59;5076071;28;20020;-77
2023/02/28 09:02:26;;;;;;;11.20;7.43;;;;;;;-146.27;100.00;48451.38;5075166;28;20201;-78
2023/02/28 09:04:52;;;;;;;11.45;7.30;;;;;;;-146.27;100.00;48421.50;5084390;28;20099;-78
2023/02/28 09:07:17;;;;;;;14.05;7.72;;;;;;;-146.27;100.00;48417.50;5089369;28;20044;-76
2023/02/28 09:09:53;;;;;;;10.82;6.93;;;;;;;-146.27;100.00;48387.63;5097665;28;20024;-76
2023/02/28 09:12:20;;;;;;;11.77;7.60;;;;;;;-146.27;100.00;48439.41;5095381;28;20081;-77
2023/02/28 09:14:45;;;;;;;9.93;7.15;;;;;;;-146.27;100.00;48415.53;5096456;28;20127;-77
2023/02/28 09:17:11;;;;;;;11.75;7.60;;;;;;;-146.27;100.00;48423.50;5088989;28;20162;-76
2023/02/28 09:19:36;;;;;;;14.88;8.32;;;;;;;-146.27;100.00;48443.41;5093560;28;20047;-75
2023/02/28 09:22:02;;;;;;;11.35;7.72;;;;;;;-146.27;100.00;48445.41;5090690;28;20507;-76
2023/02/28 09:24:27;;;;;;;11.70;7.85;;;;;;;-146.27;100.00;48429.47;5094831;28;20026;-74
2023/02/28 09:26:53;;;;;;;13.10;7.78;;;;;;;-146.27;100.00;48441.41;5093979;28;20020;-74
2023/02/28 09:29:18;;;;;;;12.40;8.00;;;;;;;-146.27;100.00;48435.44;5092858;28;20020;-74
2023/02/28 09:31:44;;;;;;;12.35;7.55;;;;;;;-146.27;100.00;48423.50;5093114;28;20034;-75
2023/02/28 09:34:09;;;;;;;12.77;7.57;;;;;;;-146.27;100.00;48439.41;5088894;28;20024;-75
2023/02/28 09:36:37;;;;;;;13.15;7.65;;;;;;;-146.27;100.00;48427.47;5089018;28;20032;-74
2023/02/28 09:39:02;;;;;;;15.60;8.55;;;;;;;-146.27;100.00;48445.41;5089758;28;20054;-75
2023/02/28 09:41:39;;;;;;;11.68;6.93;;;;;;;-146.27;100.00;48439.41;5093284;28;20077;-75
2023/02/28 09:44:10;;;;;;;10.07;7.32;;;;;;;-146.27;100.00;48437.44;5088560;28;20044;-75
2023/02/28 09:46:46;;;;;;;10.25;7.38;;;;;;;-146.27;100.00;48441.41;5084763;28;20384;-76
2023/02/28 09:49:18;;;;;;;14.55;7.65;;;;;;;-146.27;100.00;48435.44;5089201;28;20480;-76
2023/02/28 09:52:13;;;;;;;10.95;7.38;;;;;;;-146.27;100.00;48443.41;5092199;28;20025;-74
2023/02/28 09:54:40;;;;;;;13.13;7.43;;;;;;;-146.27;100.00;48443.41;5090380;28;20053;-75
2023/02/28 09:57:15;;;;;;;13.05;7.55;;;;;;;-146.27;100.00;48395.59;5086019;28;20048;-75
2023/02/28 09:59:54;;;;;;;15.27;8.38;;;;;;;-146.27;100.00;48447.38;5094239;28;20097;-75
2023/02/28 10:03:08;;;;;;;9.80;6.55;;;;;;;-146.27;100.00;48435.44;5078554;28;20414;-75
2023/02/28 10:05:42;;;;;;;7.45;5.43;;;;;;;-146.27;100.00;48443.41;5076649;28;20055;-75
2023/02/28 10:08:29;;;;;;;12.55;5.78;;;;;;;-146.27;100.00;48437.44;5081710;28;20043;-75
2023/02/28 10:11:00;;;;;;;9.60;5.53;;;;;;;-146.27;100.00;48403.56;5081379;28;20069;-75
2023/02/28 10:13:45;;;;;;;8.93;5.50;;;;;;;-146.27;100.00;48431.47;5078544;28;20071;-73
2023/02/28 10:16:15;;;;;;;5.97;4.57;;;;;;;-146.27;100.00;48435.44;5086743;28;20138;-75
2023/02/28 10:18:50;;;;;;;7.05;5.15;;;;;;;-146.27;100.00;48399.59;5084364;28;20067;-75
2023/02/28 10:21:31;;;;;;;9.05;4.65;;;;;;;-146.27;100.00;48431.47;5074562;28;20023;-75
2023/02/28 10:24:27;;;;;;;10.55;5.47;;;;;;;-146.27;100.00;48445.41;5073177;28;20086;-74
2023/02/28 10:26:59;;;;;;;10.15;5.28;;;;;;;-146.27;100.00;48443.41;5087229;28;20483;-74
2023/02/28 10:29:24;;;;;;;6.43;4.70;;;;;;;-146.27;100.00;48439.41;5100939;28;20020;-74
2023/02/28 10:31:50;;;;;;;13.75;5.43;;;;;;;-146.27;100.00;48419.50;5083368;28;20357;-75
2023/02/28 10:34:15;;;;;;;8.63;4.80;;;;;;;-146.27;100.00;48413.53;5085677;28;20410;-75
2023/02/28 10:36:43;;;;;;;6.57;5.07;;;;;;;-146.27;100.00;48423.50;5090005;28;20040;-75
2023/02/28 10:39:45;;;;;;;9.00;4.70;;;;;;;-146.27;100.00;48435.44;5084421;28;20122;-73
2023/02/28 10:42:28;;;;;;;5.47;3.65;;;;;;;-146.27;100.00;48445.41;5086585;28;20438;-75
2023/02/28 10:45:15;;;;;;;6.80;4.32;;;;;;;-146.27;100.00;48451.38;5083952;28;20035;-75
2023/02/28 10:47:57;;;;;;;6.68;3.72;;;;;;;-146.27;97.77;48463.31;5085841;28;20458;-75
2023/02/28 10:50:47;;;;;;;8.10;3.92;;;;;;;-146.27;98.63;48423.50;5076726;28;20039;-76
2023/02/28 10:53:24;;;;;;;5.50;3.70;;;;;;;-146.27;98.46;48419.50;5081656;28;20054;-76
2023/02/28 10:56:23;;;;;;;9.13;4.68;;;;;;;-146.27;98.26;48389.63;5074356;28;20107;-76
2023/02/28 10:59:01;;;;;;;6.82;3.80;;;;;;;-146.27;96.36;48439.41;5074759;28;20548;-76
2023/02/28 11:01:38;;;;;;;6.40;3.28;;;;;;;-146.27;93.92;48383.66;5073853;28;20036;-76
2023/02/28 11:04:17;;;;;;;7.05;4.03;;;;;;;-146.27;94.98;48447.38;5072678;28;20032;-76
2023/02/28 11:06:42;;;;;;;6.00;3.15;;;;;;;-146.27;87.62;48417.50;5072651;28;20044;-76
2023/02/28 11:09:47;;;;;;;4.97;3.30;;;;;;;-146.27;86.94;48409.53;5073079;28;20439;-77
2023/02/28 11:12:26;;;;;;;4.53;2.67;;;;;;;-146.27;79.58;48387.63;5083478;28;20455;-77
2023/02/28 11:15:05;;;;;;;4.32;2.72;;;;;;;-146.27;79.28;48409.53;5084143;28;20564;-76
2023/02/28 11:17:32;;;;;;;3.45;2.88;;;;;;;-146.27;76.74;48417.50;5092879;28;20063;-76
2023/02/28 11:20:03;;;;;;;4.70;2.78;;;;;;;-146.27;73.81;48393.63;5092684;28;20433;-76